SIA179 YPAD-YBAS
Flight info
| Callsign | SIA179 |
|---|---|
| Flight time | 1h 54m |
| Altitude | 36000 |
| Route | AD A585 AREPA J58 WHA J251 AS |
| Aircraft | B738/M-SDE2E3FGHIRWXY/LB1 |
Departure
| Time | 2026-04-19 03:36 |
|---|---|
| Airport | Adelaide International Airport (YPAD) |
Arrival
| Time | 2026-04-19 05:30 |
|---|---|
| Airport | Alice Springs Airport (YBAS) |
| Time | Latitude | Longitude | Altitude | Speed | Heading |
|---|---|---|---|---|---|
| 2026-04-19 03:10 | -34.94034 | 138.53700 | 25 ft | 0 kts | 320° |
| 2026-04-19 03:28 | -34.94035 | 138.53701 | 25 ft | 2 kts | 320° |
| 2026-04-19 03:28 | -34.94055 | 138.53721 | 25 ft | 4 kts | 324° |
| 2026-04-19 03:28 | -34.94078 | 138.53739 | 25 ft | 4 kts | 334° |
| 2026-04-19 03:29 | -34.94102 | 138.53748 | 29 ft | 4 kts | 8° |
| 2026-04-19 03:29 | -34.94115 | 138.53741 | 25 ft | 0 kts | 50° |
| 2026-04-19 03:32 | -34.94108 | 138.53752 | 25 ft | 5 kts | 50° |
| 2026-04-19 03:32 | -34.94071 | 138.53805 | 27 ft | 10 kts | 50° |
| 2026-04-19 03:32 | -34.94025 | 138.53872 | 26 ft | 11 kts | 50° |
| 2026-04-19 03:33 | -34.93976 | 138.53944 | 28 ft | 11 kts | 50° |
| 2026-04-19 03:33 | -34.93928 | 138.54013 | 29 ft | 10 kts | 50° |
| 2026-04-19 03:33 | -34.93889 | 138.54078 | 25 ft | 9 kts | 67° |
| 2026-04-19 03:33 | -34.93900 | 138.54138 | 25 ft | 7 kts | 129° |
| 2026-04-19 03:34 | -34.93930 | 138.54175 | 30 ft | 6 kts | 139° |
| 2026-04-19 03:34 | -34.93956 | 138.54202 | 30 ft | 4 kts | 140° |
| 2026-04-19 03:34 | -34.93972 | 138.54218 | 25 ft | 1 kts | 140° |
| 2026-04-19 03:34 | -34.93977 | 138.54223 | 25 ft | 2 kts | 140° |
| 2026-04-19 03:35 | -34.93996 | 138.54242 | 25 ft | 6 kts | 140° |
| 2026-04-19 03:35 | -34.94043 | 138.54289 | 27 ft | 11 kts | 143° |
| 2026-04-19 03:35 | -34.94125 | 138.54237 | 26 ft | 26 kts | 230° |
| 2026-04-19 03:35 | -34.94394 | 138.53841 | 26 ft | 95 kts | 230° |
| 2026-04-19 03:36 | -34.94942 | 138.53038 | 27 ft | 153 kts | 231° |
| 2026-04-19 03:36 | -34.95680 | 138.51925 | 297 ft | 180 kts | 232° |
| 2026-04-19 03:36 | -34.96497 | 138.50710 | 929 ft | 189 kts | 233° |
| 2026-04-19 03:36 | -34.97351 | 138.49465 | 1674 ft | 194 kts | 232° |
| 2026-04-19 03:37 | -34.98230 | 138.48211 | 2409 ft | 195 kts | 233° |
| 2026-04-19 03:37 | -34.99109 | 138.46949 | 3187 ft | 195 kts | 233° |
| 2026-04-19 03:37 | -34.99974 | 138.45706 | 3942 ft | 197 kts | 234° |
| 2026-04-19 03:37 | -35.00903 | 138.44351 | 4204 ft | 220 kts | 234° |
| 2026-04-19 03:38 | -35.01938 | 138.42821 | 4408 ft | 247 kts | 237° |
| 2026-04-19 03:38 | -35.02696 | 138.40841 | 4656 ft | 270 kts | 256° |
| 2026-04-19 03:38 | -35.02984 | 138.38479 | 4887 ft | 294 kts | 270° |
| 2026-04-19 03:38 | -35.02761 | 138.35913 | 5194 ft | 313 kts | 285° |
| 2026-04-19 03:39 | -35.01847 | 138.33481 | 5849 ft | 322 kts | 307° |
| 2026-04-19 03:39 | -35.00228 | 138.31593 | 6701 ft | 324 kts | 318° |
| 2026-04-19 03:39 | -34.98481 | 138.29821 | 7422 ft | 329 kts | 319° |
| 2026-04-19 03:39 | -34.96658 | 138.28087 | 8038 ft | 337 kts | 326° |
| 2026-04-19 03:40 | -34.94484 | 138.26926 | 8724 ft | 343 kts | 337° |
| 2026-04-19 03:40 | -34.92247 | 138.25951 | 9378 ft | 348 kts | 338° |
| 2026-04-19 03:40 | -34.89956 | 138.24968 | 10025 ft | 351 kts | 338° |
| 2026-04-19 03:40 | -34.87647 | 138.23960 | 10666 ft | 354 kts | 338° |
| 2026-04-19 03:41 | -34.85325 | 138.22935 | 11384 ft | 356 kts | 337° |
| 2026-04-19 03:41 | -34.82992 | 138.21891 | 12092 ft | 358 kts | 336° |
| 2026-04-19 03:41 | -34.80642 | 138.20837 | 12783 ft | 360 kts | 336° |
| 2026-04-19 03:41 | -34.78272 | 138.19771 | 13347 ft | 365 kts | 335° |
| 2026-04-19 03:42 | -34.76100 | 138.18272 | 13888 ft | 365 kts | 317° |
| 2026-04-19 03:42 | -34.74425 | 138.15977 | 14539 ft | 362 kts | 302° |
| 2026-04-19 03:42 | -34.73002 | 138.13427 | 15150 ft | 365 kts | 301° |
| 2026-04-19 03:42 | -34.71594 | 138.10826 | 15715 ft | 369 kts | 301° |
| 2026-04-19 03:43 | -34.70172 | 138.08201 | 16284 ft | 373 kts | 301° |
| 2026-04-19 03:43 | -34.68729 | 138.05561 | 16849 ft | 377 kts | 301° |
| 2026-04-19 03:43 | -34.67264 | 138.02906 | 17387 ft | 380 kts | 302° |
| 2026-04-19 03:43 | -34.65778 | 138.00230 | 17921 ft | 384 kts | 302° |
| 2026-04-19 03:44 | -34.64272 | 137.97529 | 18449 ft | 387 kts | 302° |
| 2026-04-19 03:44 | -34.62775 | 137.94850 | 18987 ft | 389 kts | 302° |
| 2026-04-19 03:44 | -34.61250 | 137.92123 | 19535 ft | 391 kts | 302° |
| 2026-04-19 03:44 | -34.59713 | 137.89375 | 19986 ft | 395 kts | 302° |
| 2026-04-19 03:45 | -34.57917 | 137.86828 | 20435 ft | 403 kts | 318° |
| 2026-04-19 03:45 | -34.55522 | 137.85029 | 20964 ft | 410 kts | 334° |
| 2026-04-19 03:45 | -34.52753 | 137.84112 | 21459 ft | 416 kts | 346° |
| 2026-04-19 03:45 | -34.49894 | 137.83490 | 21898 ft | 420 kts | 347° |
| 2026-04-19 03:46 | -34.46997 | 137.82904 | 22292 ft | 424 kts | 347° |
| 2026-04-19 03:46 | -34.44083 | 137.82316 | 22721 ft | 425 kts | 347° |
| 2026-04-19 03:46 | -34.41159 | 137.81712 | 23155 ft | 427 kts | 347° |
| 2026-04-19 03:46 | -34.38226 | 137.81090 | 23555 ft | 429 kts | 347° |
| 2026-04-19 03:47 | -34.35277 | 137.80454 | 23930 ft | 431 kts | 346° |
| 2026-04-19 03:47 | -34.32317 | 137.79809 | 24306 ft | 434 kts | 346° |
| 2026-04-19 03:47 | -34.29338 | 137.79157 | 24670 ft | 436 kts | 346° |
| 2026-04-19 03:47 | -34.26344 | 137.78502 | 25024 ft | 439 kts | 346° |
| 2026-04-19 03:48 | -34.23337 | 137.77845 | 25359 ft | 441 kts | 346° |
| 2026-04-19 03:48 | -34.20342 | 137.77192 | 25680 ft | 443 kts | 346° |
| 2026-04-19 03:48 | -34.17259 | 137.76521 | 25988 ft | 446 kts | 346° |
| 2026-04-19 03:48 | -34.14234 | 137.75866 | 26294 ft | 448 kts | 346° |
| 2026-04-19 03:49 | -34.11153 | 137.75195 | 26602 ft | 450 kts | 346° |
| 2026-04-19 03:49 | -34.08058 | 137.74522 | 26889 ft | 453 kts | 346° |
| 2026-04-19 03:49 | -34.04950 | 137.73844 | 27161 ft | 455 kts | 346° |
| 2026-04-19 03:49 | -34.01811 | 137.73157 | 27433 ft | 457 kts | 346° |
| 2026-04-19 03:50 | -33.98677 | 137.72471 | 27690 ft | 460 kts | 346° |
| 2026-04-19 03:50 | -33.95562 | 137.71791 | 27970 ft | 461 kts | 346° |
| 2026-04-19 03:50 | -33.92402 | 137.71102 | 28241 ft | 462 kts | 346° |
| 2026-04-19 03:50 | -33.89220 | 137.70408 | 28497 ft | 464 kts | 346° |
| 2026-04-19 03:51 | -33.86041 | 137.69715 | 28745 ft | 466 kts | 346° |
| 2026-04-19 03:51 | -33.82838 | 137.69017 | 28985 ft | 468 kts | 346° |
| 2026-04-19 03:51 | -33.79631 | 137.68319 | 29233 ft | 469 kts | 346° |
| 2026-04-19 03:51 | -33.76416 | 137.67620 | 29463 ft | 470 kts | 346° |
| 2026-04-19 03:52 | -33.73183 | 137.66918 | 29710 ft | 471 kts | 346° |
| 2026-04-19 03:52 | -33.69963 | 137.66220 | 30030 ft | 470 kts | 346° |
| 2026-04-19 03:52 | -33.66787 | 137.65532 | 30396 ft | 468 kts | 346° |
| 2026-04-19 03:52 | -33.63589 | 137.64841 | 30709 ft | 467 kts | 346° |
| 2026-04-19 03:53 | -33.60388 | 137.64148 | 30946 ft | 467 kts | 346° |
| 2026-04-19 03:53 | -33.57181 | 137.63452 | 31189 ft | 468 kts | 346° |
| 2026-04-19 03:53 | -33.53980 | 137.62760 | 31502 ft | 466 kts | 346° |
| 2026-04-19 03:53 | -33.50788 | 137.62070 | 31817 ft | 465 kts | 346° |
| 2026-04-19 03:54 | -33.47606 | 137.61383 | 32075 ft | 465 kts | 346° |
| 2026-04-19 03:54 | -33.44421 | 137.60696 | 32318 ft | 465 kts | 346° |
| 2026-04-19 03:54 | -33.41235 | 137.60008 | 32581 ft | 464 kts | 346° |
| 2026-04-19 03:54 | -33.38055 | 137.59323 | 32855 ft | 463 kts | 346° |
| 2026-04-19 03:55 | -33.34885 | 137.58641 | 33104 ft | 463 kts | 346° |
| 2026-04-19 03:55 | -33.31712 | 137.57958 | 33335 ft | 463 kts | 346° |
| 2026-04-19 03:55 | -33.28586 | 137.57286 | 33571 ft | 462 kts | 346° |
| 2026-04-19 03:55 | -33.25420 | 137.56606 | 33815 ft | 461 kts | 346° |
| 2026-04-19 03:56 | -33.22260 | 137.55930 | 34008 ft | 462 kts | 346° |
| 2026-04-19 03:56 | -33.19098 | 137.55250 | 34203 ft | 462 kts | 346° |
| 2026-04-19 03:56 | -33.15943 | 137.54573 | 34445 ft | 460 kts | 345° |
| 2026-04-19 03:56 | -33.12789 | 137.53896 | 34672 ft | 460 kts | 345° |
| 2026-04-19 03:57 | -33.09638 | 137.53221 | 34837 ft | 461 kts | 346° |
| 2026-04-19 03:57 | -33.06478 | 137.52541 | 35016 ft | 461 kts | 345° |
| 2026-04-19 03:57 | -33.03384 | 137.51636 | 35223 ft | 456 kts | 339° |
| 2026-04-19 03:57 | -33.00355 | 137.50507 | 35456 ft | 454 kts | 337° |
| 2026-04-19 03:58 | -32.97354 | 137.49319 | 35636 ft | 454 kts | 337° |
| 2026-04-19 03:58 | -32.94358 | 137.48120 | 35772 ft | 455 kts | 337° |
| 2026-04-19 03:58 | -32.91388 | 137.46945 | 35928 ft | 455 kts | 337° |
| 2026-04-19 03:58 | -32.88376 | 137.45772 | 36124 ft | 454 kts | 337° |
| 2026-04-19 03:59 | -32.85353 | 137.44610 | 36163 ft | 456 kts | 337° |
| 2026-04-19 03:59 | -32.79294 | 137.42307 | 36170 ft | 455 kts | 338° |
| 2026-04-19 04:00 | -32.73270 | 137.40027 | 36171 ft | 453 kts | 337° |
| 2026-04-19 04:00 | -32.67311 | 137.37772 | 36173 ft | 451 kts | 337° |
| 2026-04-19 04:01 | -32.61351 | 137.35518 | 36179 ft | 449 kts | 337° |
| 2026-04-19 04:01 | -32.52421 | 137.32144 | 36177 ft | 448 kts | 337° |
| 2026-04-19 04:02 | -32.46472 | 137.29901 | 36173 ft | 448 kts | 337° |
| 2026-04-19 04:02 | -32.40554 | 137.27672 | 36179 ft | 449 kts | 337° |
| 2026-04-19 04:03 | -32.34592 | 137.25427 | 36184 ft | 451 kts | 337° |
| 2026-04-19 04:03 | -32.28601 | 137.23177 | 36171 ft | 452 kts | 337° |
| 2026-04-19 04:04 | -32.22596 | 137.20924 | 36174 ft | 453 kts | 337° |
| 2026-04-19 04:04 | -32.16574 | 137.18667 | 36185 ft | 454 kts | 337° |
| 2026-04-19 04:05 | -32.10539 | 137.16409 | 36186 ft | 455 kts | 337° |
| 2026-04-19 04:05 | -32.04501 | 137.14149 | 36182 ft | 455 kts | 337° |
| 2026-04-19 04:06 | -31.98490 | 137.11906 | 36183 ft | 456 kts | 337° |
| 2026-04-19 04:06 | -31.92443 | 137.09652 | 36187 ft | 454 kts | 337° |
| 2026-04-19 04:07 | -31.86418 | 137.07411 | 36183 ft | 453 kts | 337° |
| 2026-04-19 04:07 | -31.80409 | 137.05179 | 36177 ft | 451 kts | 337° |
| 2026-04-19 04:08 | -31.74453 | 137.02968 | 36180 ft | 449 kts | 336° |
| 2026-04-19 04:08 | -31.68489 | 137.00758 | 36186 ft | 448 kts | 337° |
| 2026-04-19 04:09 | -31.62545 | 136.98555 | 36186 ft | 447 kts | 336° |
| 2026-04-19 04:09 | -31.56614 | 136.96362 | 36186 ft | 446 kts | 336° |
| 2026-04-19 04:10 | -31.50686 | 136.94175 | 36182 ft | 446 kts | 336° |
| 2026-04-19 04:10 | -31.44808 | 136.92008 | 36186 ft | 445 kts | 336° |
| 2026-04-19 04:11 | -31.38886 | 136.89826 | 36185 ft | 446 kts | 336° |
| 2026-04-19 04:11 | -31.32965 | 136.87647 | 36182 ft | 447 kts | 336° |
| 2026-04-19 04:12 | -31.27031 | 136.85468 | 36185 ft | 447 kts | 336° |
| 2026-04-19 04:12 | -31.21090 | 136.83289 | 36192 ft | 447 kts | 336° |
| 2026-04-19 04:13 | -31.15141 | 136.81108 | 36182 ft | 448 kts | 336° |
| 2026-04-19 04:13 | -31.09249 | 136.78857 | 36186 ft | 447 kts | 335° |
| 2026-04-19 04:14 | -31.03359 | 136.76496 | 36189 ft | 447 kts | 335° |
| 2026-04-19 04:14 | -30.98464 | 136.74535 | 36186 ft | 447 kts | 335° |
| 2026-04-19 04:15 | -30.92570 | 136.72193 | 36186 ft | 447 kts | 335° |
| 2026-04-19 04:15 | -30.85715 | 136.69484 | 36189 ft | 447 kts | 335° |
| 2026-04-19 04:16 | -30.80830 | 136.67555 | 36182 ft | 446 kts | 335° |
| 2026-04-19 04:16 | -30.74948 | 136.65237 | 36181 ft | 445 kts | 335° |
| 2026-04-19 04:17 | -30.69078 | 136.62928 | 36187 ft | 445 kts | 335° |
| 2026-04-19 04:17 | -30.63252 | 136.60635 | 36180 ft | 444 kts | 334° |
| 2026-04-19 04:18 | -30.57406 | 136.58340 | 36187 ft | 443 kts | 334° |
| 2026-04-19 04:18 | -30.51568 | 136.56052 | 36185 ft | 442 kts | 334° |
| 2026-04-19 04:19 | -30.45732 | 136.53767 | 36185 ft | 442 kts | 334° |
| 2026-04-19 04:19 | -30.39907 | 136.51489 | 36184 ft | 441 kts | 334° |
| 2026-04-19 04:20 | -30.34088 | 136.49215 | 36186 ft | 441 kts | 334° |
| 2026-04-19 04:20 | -30.28317 | 136.46965 | 36180 ft | 440 kts | 334° |
| 2026-04-19 04:21 | -30.22502 | 136.44698 | 36189 ft | 440 kts | 334° |
| 2026-04-19 04:21 | -30.16694 | 136.42436 | 36186 ft | 440 kts | 334° |
| 2026-04-19 04:22 | -30.10887 | 136.40179 | 36186 ft | 441 kts | 334° |
| 2026-04-19 04:22 | -30.05075 | 136.37923 | 36184 ft | 441 kts | 334° |
| 2026-04-19 04:23 | -29.99289 | 136.35680 | 36189 ft | 441 kts | 334° |
| 2026-04-19 04:23 | -29.93468 | 136.33424 | 36183 ft | 441 kts | 334° |
| 2026-04-19 04:24 | -29.87646 | 136.31172 | 36184 ft | 441 kts | 334° |
| 2026-04-19 04:24 | -29.81820 | 136.28921 | 36186 ft | 442 kts | 334° |
| 2026-04-19 04:25 | -29.75989 | 136.26672 | 36181 ft | 442 kts | 334° |
| 2026-04-19 04:25 | -29.70150 | 136.24421 | 36190 ft | 442 kts | 334° |
| 2026-04-19 04:26 | -29.64303 | 136.22180 | 36182 ft | 443 kts | 334° |
| 2026-04-19 04:26 | -29.58448 | 136.19954 | 36175 ft | 442 kts | 334° |
| 2026-04-19 04:27 | -29.52644 | 136.17746 | 36177 ft | 442 kts | 334° |
| 2026-04-19 04:27 | -29.46808 | 136.15527 | 36175 ft | 441 kts | 334° |
| 2026-04-19 04:28 | -29.40983 | 136.13315 | 36179 ft | 440 kts | 334° |
| 2026-04-19 04:28 | -29.35166 | 136.11108 | 36174 ft | 440 kts | 333° |
| 2026-04-19 04:29 | -29.29345 | 136.08903 | 36173 ft | 438 kts | 333° |
| 2026-04-19 04:29 | -29.23556 | 136.06707 | 36177 ft | 438 kts | 333° |
| 2026-04-19 04:30 | -29.17815 | 136.04539 | 36172 ft | 437 kts | 333° |
| 2026-04-19 04:30 | -29.12022 | 136.02389 | 36160 ft | 438 kts | 334° |
| 2026-04-19 04:31 | -29.06159 | 136.00409 | 36118 ft | 440 kts | 335° |
| 2026-04-19 04:31 | -29.00221 | 135.98752 | 36106 ft | 445 kts | 340° |
| 2026-04-19 04:32 | -28.94204 | 135.97265 | 36163 ft | 434 kts | 333° |
| 2026-04-19 04:32 | -28.88473 | 135.95076 | 36174 ft | 433 kts | 332° |
| 2026-04-19 04:33 | -28.82800 | 135.92863 | 36172 ft | 433 kts | 332° |
| 2026-04-19 04:33 | -28.77098 | 135.90646 | 36168 ft | 433 kts | 332° |
| 2026-04-19 04:34 | -28.71392 | 135.88439 | 36164 ft | 433 kts | 332° |
| 2026-04-19 04:34 | -28.65675 | 135.86232 | 36166 ft | 433 kts | 332° |
| 2026-04-19 04:35 | -28.59952 | 135.84024 | 36167 ft | 434 kts | 332° |
| 2026-04-19 04:35 | -28.54270 | 135.81838 | 36167 ft | 434 kts | 332° |
| 2026-04-19 04:36 | -28.48546 | 135.79638 | 36165 ft | 433 kts | 332° |
| 2026-04-19 04:36 | -28.42841 | 135.77446 | 36168 ft | 433 kts | 332° |
| 2026-04-19 04:37 | -28.37126 | 135.75255 | 36165 ft | 432 kts | 332° |
| 2026-04-19 04:37 | -28.31464 | 135.73085 | 36166 ft | 431 kts | 332° |
| 2026-04-19 04:38 | -28.25772 | 135.70906 | 36164 ft | 431 kts | 332° |
| 2026-04-19 04:38 | -28.20090 | 135.68736 | 36169 ft | 430 kts | 332° |
| 2026-04-19 04:39 | -28.14411 | 135.66567 | 36165 ft | 430 kts | 331° |
| 2026-04-19 04:39 | -28.08765 | 135.64409 | 36153 ft | 430 kts | 331° |
| 2026-04-19 04:40 | -28.03092 | 135.62248 | 36156 ft | 429 kts | 331° |
| 2026-04-19 04:40 | -27.97433 | 135.60094 | 36158 ft | 429 kts | 331° |
| 2026-04-19 04:41 | -27.91769 | 135.57939 | 36156 ft | 429 kts | 331° |
| 2026-04-19 04:41 | -27.86145 | 135.55803 | 36156 ft | 428 kts | 331° |
| 2026-04-19 04:42 | -27.80491 | 135.53658 | 36159 ft | 428 kts | 331° |
| 2026-04-19 04:42 | -27.74843 | 135.51518 | 36158 ft | 428 kts | 331° |
| 2026-04-19 04:43 | -27.69190 | 135.49376 | 36159 ft | 428 kts | 331° |
| 2026-04-19 04:43 | -27.63531 | 135.47235 | 36151 ft | 429 kts | 331° |
| 2026-04-19 04:44 | -27.57869 | 135.45095 | 36140 ft | 429 kts | 331° |
| 2026-04-19 04:44 | -27.52238 | 135.42883 | 36146 ft | 426 kts | 329° |
| 2026-04-19 04:45 | -27.46722 | 135.40461 | 36133 ft | 425 kts | 328° |
| 2026-04-19 04:45 | -27.41244 | 135.38041 | 36145 ft | 424 kts | 328° |
| 2026-04-19 04:46 | -27.35730 | 135.35634 | 36137 ft | 425 kts | 328° |
| 2026-04-19 04:46 | -27.30199 | 135.33239 | 36137 ft | 425 kts | 329° |
| 2026-04-19 04:47 | -27.24717 | 135.30872 | 36140 ft | 424 kts | 328° |
| 2026-04-19 04:47 | -27.19203 | 135.28493 | 36145 ft | 424 kts | 328° |
| 2026-04-19 04:48 | -27.13683 | 135.26113 | 36140 ft | 424 kts | 328° |
| 2026-04-19 04:48 | -27.08181 | 135.23743 | 36145 ft | 423 kts | 328° |
| 2026-04-19 04:49 | -27.02710 | 135.21387 | 36132 ft | 423 kts | 328° |
| 2026-04-19 04:49 | -26.97224 | 135.19030 | 36133 ft | 422 kts | 328° |
| 2026-04-19 04:50 | -26.91729 | 135.16671 | 36132 ft | 422 kts | 328° |
| 2026-04-19 04:50 | -26.86244 | 135.14341 | 36121 ft | 421 kts | 328° |
| 2026-04-19 04:51 | -26.80763 | 135.12024 | 36127 ft | 420 kts | 328° |
| 2026-04-19 04:51 | -26.75329 | 135.09724 | 36128 ft | 420 kts | 328° |
| 2026-04-19 04:52 | -26.69866 | 135.07412 | 36129 ft | 419 kts | 328° |
| 2026-04-19 04:52 | -26.64410 | 135.05106 | 36127 ft | 419 kts | 328° |
| 2026-04-19 04:53 | -26.58960 | 135.02803 | 36126 ft | 418 kts | 328° |
| 2026-04-19 04:53 | -26.53499 | 135.00500 | 36134 ft | 418 kts | 328° |
| 2026-04-19 04:54 | -26.48088 | 134.98218 | 36122 ft | 418 kts | 328° |
| 2026-04-19 04:54 | -26.42639 | 134.95922 | 36130 ft | 418 kts | 328° |
| 2026-04-19 04:55 | -26.37186 | 134.93628 | 36133 ft | 418 kts | 328° |
| 2026-04-19 04:55 | -26.31732 | 134.91336 | 36129 ft | 418 kts | 328° |
| 2026-04-19 04:56 | -26.26324 | 134.89066 | 36131 ft | 418 kts | 328° |
| 2026-04-19 04:56 | -26.20865 | 134.86776 | 36125 ft | 418 kts | 328° |
| 2026-04-19 04:57 | -26.15415 | 134.84492 | 36133 ft | 418 kts | 328° |
| 2026-04-19 04:57 | -26.10005 | 134.82227 | 36127 ft | 418 kts | 328° |
| 2026-04-19 04:58 | -26.04562 | 134.79953 | 36123 ft | 418 kts | 328° |
| 2026-04-19 04:58 | -25.99108 | 134.77675 | 36125 ft | 418 kts | 328° |
| 2026-04-19 04:59 | -25.93662 | 134.75401 | 36126 ft | 418 kts | 328° |
| 2026-04-19 04:59 | -25.88209 | 134.73126 | 36132 ft | 418 kts | 328° |
| 2026-04-19 05:00 | -25.82765 | 134.70861 | 36136 ft | 418 kts | 328° |
| 2026-04-19 05:00 | -25.77342 | 134.68606 | 36124 ft | 419 kts | 328° |
| 2026-04-19 05:01 | -25.71868 | 134.66331 | 36137 ft | 419 kts | 328° |
| 2026-04-19 05:01 | -25.66401 | 134.64060 | 36130 ft | 419 kts | 328° |
| 2026-04-19 05:02 | -25.60934 | 134.61792 | 36132 ft | 419 kts | 328° |
| 2026-04-19 05:02 | -25.55492 | 134.59536 | 36131 ft | 420 kts | 328° |
| 2026-04-19 05:03 | -25.50012 | 134.57266 | 36129 ft | 420 kts | 328° |
| 2026-04-19 05:03 | -25.44529 | 134.54999 | 36129 ft | 420 kts | 328° |
| 2026-04-19 05:04 | -25.39970 | 134.53115 | 36133 ft | 420 kts | 328° |
| 2026-04-19 05:04 | -25.34490 | 134.50853 | 36129 ft | 420 kts | 328° |
| 2026-04-19 05:05 | -25.29014 | 134.48594 | 36130 ft | 420 kts | 328° |
| 2026-04-19 05:05 | -25.23521 | 134.46327 | 35947 ft | 424 kts | 328° |
| 2026-04-19 05:06 | -25.20764 | 134.45186 | 35359 ft | 430 kts | 329° |
| 2026-04-19 05:06 | -25.17952 | 134.44029 | 34652 ft | 431 kts | 329° |
| 2026-04-19 05:06 | -25.15144 | 134.42877 | 33951 ft | 430 kts | 329° |
| 2026-04-19 05:06 | -25.12348 | 134.41731 | 33210 ft | 429 kts | 329° |
| 2026-04-19 05:07 | -25.09564 | 134.40589 | 32679 ft | 424 kts | 329° |
| 2026-04-19 05:07 | -25.06781 | 134.39445 | 32159 ft | 428 kts | 329° |
| 2026-04-19 05:07 | -25.03969 | 134.38283 | 31636 ft | 435 kts | 329° |
| 2026-04-19 05:07 | -25.01108 | 134.37101 | 31036 ft | 442 kts | 329° |
| 2026-04-19 05:08 | -24.98258 | 134.35934 | 30492 ft | 441 kts | 329° |
| 2026-04-19 05:08 | -24.92492 | 134.33587 | 29394 ft | 441 kts | 330° |
| 2026-04-19 05:08 | -24.89605 | 134.32412 | 28833 ft | 446 kts | 330° |
| 2026-04-19 05:09 | -24.86664 | 134.31210 | 28262 ft | 453 kts | 331° |
| 2026-04-19 05:09 | -24.83731 | 134.30010 | 27692 ft | 457 kts | 332° |
| 2026-04-19 05:09 | -24.80740 | 134.28791 | 27101 ft | 458 kts | 332° |
| 2026-04-19 05:09 | -24.77743 | 134.27573 | 26521 ft | 459 kts | 333° |
| 2026-04-19 05:10 | -24.74742 | 134.26354 | 25933 ft | 460 kts | 333° |
| 2026-04-19 05:10 | -24.71735 | 134.25132 | 25347 ft | 461 kts | 334° |
| 2026-04-19 05:10 | -24.68714 | 134.23904 | 24781 ft | 461 kts | 334° |
| 2026-04-19 05:10 | -24.65703 | 134.22680 | 24176 ft | 461 kts | 334° |
| 2026-04-19 05:11 | -24.62716 | 134.21467 | 23604 ft | 454 kts | 335° |
| 2026-04-19 05:11 | -24.59807 | 134.20288 | 23055 ft | 448 kts | 335° |
| 2026-04-19 05:11 | -24.56896 | 134.19108 | 22512 ft | 445 kts | 335° |
| 2026-04-19 05:11 | -24.54001 | 134.17932 | 21980 ft | 444 kts | 335° |
| 2026-04-19 05:12 | -24.51105 | 134.16756 | 21417 ft | 443 kts | 335° |
| 2026-04-19 05:12 | -24.48217 | 134.15584 | 20885 ft | 442 kts | 336° |
| 2026-04-19 05:12 | -24.45331 | 134.14414 | 20359 ft | 440 kts | 336° |
| 2026-04-19 05:12 | -24.42461 | 134.13251 | 19809 ft | 438 kts | 336° |
| 2026-04-19 05:13 | -24.39609 | 134.12095 | 19293 ft | 436 kts | 336° |
| 2026-04-19 05:13 | -24.36794 | 134.10956 | 18769 ft | 435 kts | 336° |
| 2026-04-19 05:13 | -24.33964 | 134.09811 | 18249 ft | 432 kts | 336° |
| 2026-04-19 05:13 | -24.31150 | 134.08674 | 17707 ft | 430 kts | 337° |
| 2026-04-19 05:14 | -24.28352 | 134.07544 | 17190 ft | 428 kts | 337° |
| 2026-04-19 05:14 | -24.25561 | 134.06417 | 16677 ft | 425 kts | 337° |
| 2026-04-19 05:14 | -24.22793 | 134.05300 | 16169 ft | 422 kts | 337° |
| 2026-04-19 05:14 | -24.20034 | 134.04186 | 15637 ft | 421 kts | 338° |
| 2026-04-19 05:15 | -24.17298 | 134.03082 | 15130 ft | 418 kts | 338° |
| 2026-04-19 05:15 | -24.14570 | 134.01981 | 14630 ft | 417 kts | 338° |
| 2026-04-19 05:15 | -24.11850 | 134.00885 | 14117 ft | 414 kts | 338° |
| 2026-04-19 05:15 | -24.09180 | 133.99808 | 13622 ft | 413 kts | 338° |
| 2026-04-19 05:16 | -24.06483 | 133.98721 | 13113 ft | 412 kts | 339° |
| 2026-04-19 05:16 | -24.03799 | 133.97641 | 12613 ft | 410 kts | 339° |
| 2026-04-19 05:16 | -24.01124 | 133.96565 | 12118 ft | 408 kts | 339° |
| 2026-04-19 05:16 | -23.98459 | 133.95493 | 11603 ft | 406 kts | 339° |
| 2026-04-19 05:17 | -23.95842 | 133.94440 | 11116 ft | 404 kts | 339° |
| 2026-04-19 05:17 | -23.93176 | 133.93369 | 10684 ft | 401 kts | 340° |
| 2026-04-19 05:17 | -23.90620 | 133.92341 | 10436 ft | 393 kts | 340° |
| 2026-04-19 05:17 | -23.88059 | 133.91313 | 10238 ft | 387 kts | 340° |
| 2026-04-19 05:18 | -23.85592 | 133.90325 | 10052 ft | 367 kts | 340° |
| 2026-04-19 05:18 | -23.83258 | 133.89388 | 9785 ft | 351 kts | 340° |
| 2026-04-19 05:18 | -23.81009 | 133.88472 | 9444 ft | 338 kts | 336° |
| 2026-04-19 05:18 | -23.79085 | 133.87083 | 9085 ft | 329 kts | 315° |
| 2026-04-19 05:19 | -23.77727 | 133.85135 | 8777 ft | 318 kts | 301° |
| 2026-04-19 05:19 | -23.76605 | 133.83094 | 8447 ft | 309 kts | 300° |
| 2026-04-19 05:19 | -23.75531 | 133.81096 | 8155 ft | 300 kts | 300° |
| 2026-04-19 05:19 | -23.74495 | 133.79181 | 7827 ft | 294 kts | 300° |
| 2026-04-19 05:20 | -23.73455 | 133.77284 | 7535 ft | 288 kts | 301° |
| 2026-04-19 05:20 | -23.72431 | 133.75432 | 7237 ft | 282 kts | 301° |
| 2026-04-19 05:20 | -23.71428 | 133.73627 | 6972 ft | 274 kts | 301° |
| 2026-04-19 05:20 | -23.70449 | 133.71864 | 6679 ft | 268 kts | 301° |
| 2026-04-19 05:21 | -23.69345 | 133.70251 | 6409 ft | 263 kts | 322° |
| 2026-04-19 05:21 | -23.67756 | 133.69337 | 6351 ft | 257 kts | 342° |
| 2026-04-19 05:21 | -23.66039 | 133.68737 | 6266 ft | 262 kts | 345° |
| 2026-04-19 05:21 | -23.64303 | 133.68164 | 6212 ft | 265 kts | 345° |
| 2026-04-19 05:22 | -23.62539 | 133.67590 | 6195 ft | 263 kts | 345° |
| 2026-04-19 05:22 | -23.60860 | 133.66802 | 6173 ft | 267 kts | 323° |
| 2026-04-19 05:22 | -23.59679 | 133.65266 | 6179 ft | 266 kts | 294° |
| 2026-04-19 05:22 | -23.59314 | 133.63324 | 6180 ft | 262 kts | 264° |
| 2026-04-19 05:23 | -23.59835 | 133.61472 | 6166 ft | 254 kts | 234° |
| 2026-04-19 05:23 | -23.61084 | 133.60197 | 6150 ft | 244 kts | 201° |
| 2026-04-19 05:23 | -23.62686 | 133.59998 | 6152 ft | 232 kts | 162° |
| 2026-04-19 05:23 | -23.64050 | 133.60902 | 6191 ft | 233 kts | 135° |
| 2026-04-19 05:24 | -23.65165 | 133.62212 | 6163 ft | 239 kts | 129° |
| 2026-04-19 05:24 | -23.66197 | 133.63605 | 6068 ft | 236 kts | 127° |
| 2026-04-19 05:24 | -23.67123 | 133.65045 | 5963 ft | 227 kts | 122° |
| 2026-04-19 05:24 | -23.67933 | 133.66486 | 5872 ft | 218 kts | 120° |
| 2026-04-19 05:25 | -23.68682 | 133.67887 | 5767 ft | 210 kts | 120° |
| 2026-04-19 05:25 | -23.69416 | 133.69261 | 5583 ft | 207 kts | 120° |
| 2026-04-19 05:25 | -23.70127 | 133.70606 | 5359 ft | 202 kts | 120° |
| 2026-04-19 05:25 | -23.70829 | 133.71920 | 5132 ft | 199 kts | 120° |
| 2026-04-19 05:26 | -23.71512 | 133.73212 | 4986 ft | 190 kts | 120° |
| 2026-04-19 05:26 | -23.72162 | 133.74430 | 4837 ft | 185 kts | 120° |
| 2026-04-19 05:26 | -23.72797 | 133.75629 | 4623 ft | 180 kts | 120° |
| 2026-04-19 05:26 | -23.73422 | 133.76801 | 4364 ft | 175 kts | 120° |
| 2026-04-19 05:27 | -23.74025 | 133.77928 | 4149 ft | 170 kts | 120° |
| 2026-04-19 05:27 | -23.74609 | 133.79022 | 3941 ft | 164 kts | 119° |
| 2026-04-19 05:27 | -23.75174 | 133.80084 | 3704 ft | 162 kts | 120° |
| 2026-04-19 05:27 | -23.75723 | 133.81139 | 3487 ft | 161 kts | 120° |
| 2026-04-19 05:28 | -23.76290 | 133.82190 | 3305 ft | 158 kts | 121° |
| 2026-04-19 05:28 | -23.76839 | 133.83215 | 3081 ft | 154 kts | 120° |
| 2026-04-19 05:28 | -23.77370 | 133.84211 | 2884 ft | 149 kts | 120° |
| 2026-04-19 05:28 | -23.77884 | 133.85172 | 2682 ft | 146 kts | 120° |
| 2026-04-19 05:29 | -23.78410 | 133.86137 | 2555 ft | 150 kts | 120° |
| 2026-04-19 05:29 | -23.78916 | 133.87126 | 2311 ft | 149 kts | 118° |
| 2026-04-19 05:29 | -23.79438 | 133.88106 | 2060 ft | 146 kts | 120° |
| 2026-04-19 05:29 | -23.79943 | 133.89047 | 1895 ft | 141 kts | 120° |
| 2026-04-19 05:30 | -23.80420 | 133.89920 | 1790 ft | 121 kts | 121° |
| 2026-04-19 05:30 | -23.80765 | 133.90569 | 1786 ft | 77 kts | 120° |
| 2026-04-19 05:30 | -23.80957 | 133.90925 | 1786 ft | 33 kts | 121° |
| 2026-04-19 05:30 | -23.81066 | 133.91136 | 1785 ft | 25 kts | 120° |
| 2026-04-19 05:31 | -23.81144 | 133.91283 | 1785 ft | 20 kts | 114° |
| 2026-04-19 05:31 | -23.81178 | 133.91396 | 1783 ft | 10 kts | 145° |
| 2026-04-19 05:31 | -23.81206 | 133.91376 | 1784 ft | 4 kts | 269° |
| 2026-04-19 05:31 | -23.81190 | 133.91349 | 1784 ft | 7 kts | 310° |
| 2026-04-19 05:32 | -23.81144 | 133.91284 | 1784 ft | 14 kts | 303° |
| 2026-04-19 05:32 | -23.81086 | 133.91172 | 1785 ft | 19 kts | 298° |
| 2026-04-19 05:32 | -23.81021 | 133.91044 | 1785 ft | 19 kts | 300° |
| 2026-04-19 05:32 | -23.80957 | 133.90923 | 1785 ft | 18 kts | 300° |
| 2026-04-19 05:33 | -23.80898 | 133.90814 | 1784 ft | 16 kts | 300° |
| 2026-04-19 05:33 | -23.80843 | 133.90712 | 1785 ft | 15 kts | 300° |
| 2026-04-19 05:33 | -23.80795 | 133.90622 | 1785 ft | 13 kts | 301° |
| 2026-04-19 05:33 | -23.80753 | 133.90547 | 1786 ft | 11 kts | 301° |
| 2026-04-19 05:34 | -23.80713 | 133.90474 | 1786 ft | 12 kts | 301° |
| 2026-04-19 05:34 | -23.80670 | 133.90392 | 1786 ft | 13 kts | 300° |
| 2026-04-19 05:34 | -23.80623 | 133.90304 | 1788 ft | 14 kts | 301° |
| 2026-04-19 05:34 | -23.80576 | 133.90217 | 1789 ft | 13 kts | 300° |
| 2026-04-19 05:35 | -23.80533 | 133.90136 | 1789 ft | 12 kts | 300° |
| 2026-04-19 05:35 | -23.80495 | 133.90065 | 1790 ft | 10 kts | 300° |
| 2026-04-19 05:35 | -23.80463 | 133.90004 | 1790 ft | 8 kts | 300° |
| 2026-04-19 05:35 | -23.80432 | 133.89962 | 1790 ft | 6 kts | 330° |
| 2026-04-19 05:36 | -23.80395 | 133.89963 | 1790 ft | 5 kts | 21° |
| 2026-04-19 05:36 | -23.80378 | 133.89971 | 1791 ft | 1 kts | 25° |
| 2026-04-19 05:36 | -23.80377 | 133.89972 | 1791 ft | 0 kts | 26° |
| 2026-04-19 05:36 | -23.80370 | 133.89975 | 1789 ft | 3 kts | 26° |
| 2026-04-19 05:37 | -23.80361 | 133.89981 | 1791 ft | 1 kts | 28° |
| 2026-04-19 05:37 | -23.80333 | 133.89998 | 1790 ft | 7 kts | 30° |
| 2026-04-19 05:37 | -23.80305 | 133.90035 | 1791 ft | 6 kts | 75° |
| 2026-04-19 05:37 | -23.80312 | 133.90075 | 1792 ft | 5 kts | 115° |
| 2026-04-19 05:38 | -23.80325 | 133.90112 | 1792 ft | 5 kts | 101° |
| 2026-04-19 05:38 | -23.80317 | 133.90136 | 1792 ft | 2 kts | 40° |
| 2026-04-19 05:38 | -23.80311 | 133.90138 | 1792 ft | 3 kts | 17° |
| 2026-04-19 05:38 | -23.80292 | 133.90138 | 1792 ft | 1 kts | 6° |
| 2026-04-19 05:39 | -23.80291 | 133.90138 | 1792 ft | 0 kts | 11° |